createdAt,value
2018-11-12T00:00:34.087Z,100145.45
2018-11-12T00:03:16.803Z,100151.89
2018-11-12T00:06:00.992Z,100161.48
2018-11-12T00:08:43.683Z,100149.02
2018-11-12T00:11:26.092Z,100141.23
2018-11-12T00:14:09.672Z,100143.85
2018-11-12T00:16:52.096Z,100156.43
2018-11-12T00:19:35.129Z,100141.28
2018-11-12T00:22:18.132Z,100139.23
2018-11-12T00:25:01.175Z,100143.87
2018-11-12T00:27:44.799Z,100149.45
2018-11-12T00:30:28.120Z,100149.00
2018-11-12T00:33:11.419Z,100152.02
2018-11-12T00:35:55.174Z,100153.66
2018-11-12T00:38:38.507Z,100154.45
2018-11-12T00:41:22.637Z,100156.16
2018-11-12T00:44:05.994Z,100161.30
2018-11-12T00:46:48.844Z,100171.73
2018-11-12T00:49:32.754Z,100175.95
2018-11-12T00:52:15.689Z,100179.79
2018-11-12T00:54:58.705Z,100193.59
2018-11-12T00:57:42.391Z,100199.19
2018-11-12T01:00:25.667Z,100200.97
2018-11-12T01:03:09.904Z,100199.36
2018-11-12T01:05:52.275Z,100193.34
2018-11-12T01:08:35.335Z,100206.70
2018-11-12T01:11:17.636Z,100209.27
2018-11-12T01:14:00.172Z,100205.81
2018-11-12T01:16:44.013Z,100205.41
2018-11-12T01:19:27.603Z,100219.13
2018-11-12T01:22:11.697Z,100206.63
2018-11-12T01:24:54.165Z,100199.36
2018-11-12T01:27:37.234Z,100207.06
2018-11-12T01:30:20.160Z,100204.53
2018-11-12T01:33:02.499Z,100200.98
2018-11-12T01:35:45.847Z,100185.98
2018-11-12T01:38:28.996Z,100183.75
2018-11-12T01:41:12.004Z,100185.98
2018-11-12T01:43:54.719Z,100201.59
2018-11-12T01:46:38.169Z,100197.64
2018-11-12T01:49:21.063Z,100195.10
2018-11-12T01:52:05.132Z,100195.56
2018-11-12T01:54:48.211Z,100184.38
2018-11-12T01:57:30.372Z,100182.69
2018-11-12T02:00:16.180Z,100184.83
2018-11-12T02:02:58.996Z,100185.73
2018-11-12T02:05:42.720Z,100186.11
2018-11-12T02:08:26.439Z,100176.19
2018-11-12T02:11:09.788Z,100185.70
2018-11-12T02:13:52.998Z,100198.08
2018-11-12T02:16:35.914Z,100216.93
2018-11-12T02:19:19.244Z,100222.75
2018-11-12T02:22:02.471Z,100221.83
2018-11-12T02:24:45.594Z,100224.82
2018-11-12T02:27:28.309Z,100219.27
2018-11-12T02:30:16.284Z,100211.98
2018-11-12T02:32:58.562Z,100199.07
2018-11-12T02:35:40.902Z,100197.76
2018-11-12T02:38:24.148Z,100195.27
2018-11-12T02:41:08.335Z,100191.34
2018-11-12T02:43:51.957Z,100186.24
2018-11-12T02:46:34.995Z,100181.52
2018-11-12T02:49:17.615Z,100176.32
2018-11-12T02:52:00.476Z,100178.03
2018-11-12T02:54:44.281Z,100181.86
2018-11-12T02:57:26.895Z,100178.03
2018-11-12T03:00:12.060Z,100158.73
2018-11-12T03:02:55.091Z,100166.47
2018-11-12T03:05:37.435Z,100158.73
2018-11-12T03:08:20.483Z,100155.41
2018-11-12T03:11:03.570Z,100145.39
2018-11-12T03:13:46.151Z,100143.27
2018-11-12T03:16:28.676Z,100149.70
2018-11-12T03:19:11.156Z,100140.24
2018-11-12T03:21:53.359Z,100128.68
2018-11-12T03:24:36.569Z,100136.42
2018-11-12T03:27:19.277Z,100143.31
2018-11-12T03:30:02.221Z,100133.73
2018-11-12T03:32:45.815Z,100124.64
2018-11-12T03:35:27.927Z,100132.36
2018-11-12T03:38:10.931Z,100135.75
2018-11-12T03:40:53.639Z,100129.02
2018-11-12T03:43:36.830Z,100133.66
2018-11-12T03:46:31.910Z,100124.99
2018-11-12T03:49:15.264Z,100133.77
2018-11-12T03:51:57.761Z,100144.09
2018-11-12T03:54:40.600Z,100149.20
2018-11-12T03:57:24.104Z,100159.41
2018-11-12T04:00:14.044Z,100177.11
2018-11-12T04:02:57.211Z,100171.72
2018-11-12T04:05:39.363Z,100178.67
2018-11-12T04:08:22.528Z,100181.66
2018-11-12T04:11:07.127Z,100183.96
2018-11-12T04:13:50.339Z,100187.70
2018-11-12T04:16:33.015Z,100180.66
2018-11-12T04:19:16.157Z,100190.45
2018-11-12T04:21:58.542Z,100197.29
2018-11-12T04:24:41.954Z,100200.30
2018-11-12T04:27:25.160Z,100202.19
2018-11-12T04:30:12.044Z,100207.13
2018-11-12T04:32:54.416Z,100212.05
2018-11-12T04:36:03.484Z,100203.14
2018-11-12T04:38:55.118Z,100208.41
2018-11-12T04:41:38.510Z,100207.08
2018-11-12T04:44:24.834Z,100205.22
2018-11-12T04:47:07.407Z,100214.55
2018-11-12T04:49:50.179Z,100207.59
2018-11-12T04:52:32.751Z,100207.86
2018-11-12T04:55:16.211Z,100210.54
2018-11-12T04:57:58.765Z,100205.66
2018-11-12T05:00:41.399Z,100200.29
2018-11-12T05:03:23.842Z,100190.91
2018-11-12T05:06:06.848Z,100182.69
2018-11-12T05:08:49.914Z,100183.89
2018-11-12T05:11:33.038Z,100193.41
2018-11-12T05:14:15.715Z,100201.14
2018-11-12T05:16:58.164Z,100199.00
2018-11-12T05:19:41.453Z,100191.72
2018-11-12T05:22:24.336Z,100177.03
2018-11-12T05:25:07.507Z,100185.25
2018-11-12T05:27:50.543Z,100188.72
2018-11-12T05:30:32.915Z,100195.52
2018-11-12T05:33:16.757Z,100201.20
2018-11-12T05:35:59.553Z,100201.64
2018-11-12T05:38:42.639Z,100192.73
2018-11-12T05:41:25.704Z,100172.91
2018-11-12T05:44:08.950Z,100150.48
2018-11-12T05:46:51.143Z,100160.88
2018-11-12T05:49:35.041Z,100166.97
2018-11-12T05:52:17.812Z,100156.59
2018-11-12T05:55:00.359Z,100160.46
2018-11-12T05:57:44.245Z,100169.97
2018-11-12T06:00:29.812Z,100176.86
2018-11-12T06:03:12.897Z,100176.86
2018-11-12T06:05:55.666Z,100172.97
2018-11-12T06:08:38.181Z,100160.08
2018-11-12T06:11:20.794Z,100168.23
2018-11-12T06:14:03.924Z,100165.65
2018-11-12T06:16:46.438Z,100166.07
2018-11-12T06:19:29.398Z,100159.17
2018-11-12T06:22:12.170Z,100181.56
2018-11-12T06:24:56.472Z,100190.61
2018-11-12T06:27:39.364Z,100194.06
2018-11-12T06:30:24.845Z,100187.61
2018-11-12T06:33:07.739Z,100166.09
2018-11-12T06:35:51.140Z,100165.21
2018-11-12T06:38:34.851Z,100166.95
2018-11-12T06:41:17.667Z,100179.05
2018-11-12T06:44:00.458Z,100176.88
2018-11-12T06:46:42.604Z,100175.16
2018-11-12T06:49:25.781Z,100181.20
2018-11-12T06:52:09.054Z,100193.67
2018-11-12T06:54:53.741Z,100185.91
2018-11-12T06:57:37.970Z,100177.29
2018-11-12T07:00:26.408Z,100179.45
2018-11-12T07:03:09.292Z,100175.95
2018-11-12T07:05:52.633Z,100183.70
2018-11-12T07:08:36.791Z,100184.55
2018-11-12T07:11:19.710Z,100174.63
2018-11-12T07:14:02.817Z,100166.89
2018-11-12T07:16:46.452Z,100160.00
2018-11-12T07:19:29.756Z,100157.41
2018-11-12T07:22:12.279Z,100148.78
2018-11-12T07:24:56.103Z,100146.61
2018-11-12T07:27:39.615Z,100152.17
2018-11-12T07:30:23.111Z,100162.03
2018-11-12T07:33:05.558Z,100159.00
2018-11-12T07:35:48.113Z,100166.25
2018-11-12T07:38:32.427Z,100167.05
2018-11-12T07:41:15.304Z,100169.11
2018-11-12T07:43:59.333Z,100155.45
2018-11-12T07:46:42.148Z,100157.91
2018-11-12T07:49:25.128Z,100164.10
2018-11-12T07:52:09.408Z,100154.19
2018-11-12T07:54:52.357Z,100148.16
2018-11-12T07:57:36.299Z,100143.84
2018-11-12T08:00:20.135Z,100149.88
2018-11-12T08:03:11.812Z,100144.63
2018-11-12T08:05:54.472Z,100145.03
2018-11-12T08:08:37.195Z,100144.22
2018-11-12T08:11:21.372Z,100137.72
2018-11-12T08:14:03.603Z,100130.56
2018-11-12T08:16:46.247Z,100134.35
2018-11-12T08:19:28.603Z,100127.97
2018-11-12T08:22:11.056Z,100122.00
2018-11-12T08:24:53.396Z,100110.34
2018-11-12T08:27:38.786Z,100099.00
2018-11-12T08:30:24.749Z,100096.17
2018-11-12T08:33:14.522Z,100092.16
2018-11-12T08:35:57.960Z,100092.92
2018-11-12T08:38:42.408Z,100098.23
2018-11-12T08:41:26.988Z,100107.72
2018-11-12T08:44:10.461Z,100106.72
2018-11-12T08:46:58.389Z,100109.43
2018-11-12T08:49:42.007Z,100108.55
2018-11-12T08:52:25.660Z,100112.48
2018-11-12T08:55:11.122Z,100107.75
2018-11-12T08:57:56.036Z,100102.14
2018-11-12T09:00:39.529Z,100102.69
2018-11-12T09:03:31.263Z,100097.51
2018-11-12T09:06:16.534Z,100099.95
2018-11-12T09:09:00.735Z,100092.29
2018-11-12T09:11:44.293Z,100097.47
2018-11-12T09:14:28.240Z,100095.36
2018-11-12T09:17:10.921Z,100090.94
2018-11-12T09:19:54.580Z,100076.67
2018-11-12T09:22:37.936Z,100077.03
2018-11-12T09:25:22.430Z,100079.59
2018-11-12T09:28:05.618Z,100077.86
2018-11-12T09:30:50.675Z,100068.84
2018-11-12T09:33:35.560Z,100068.80
2018-11-12T09:36:20.218Z,100066.56
2018-11-12T09:39:05.397Z,100048.82
2018-11-12T09:41:51.159Z,100063.48
2018-11-12T09:44:33.774Z,100071.56
2018-11-12T09:47:18.552Z,100082.92
2018-11-12T09:50:12.470Z,100073.32
2018-11-12T09:52:57.152Z,100077.06
2018-11-12T09:55:40.877Z,100077.03
2018-11-12T09:58:23.625Z,100066.97
2018-11-12T10:01:07.397Z,100058.66
2018-11-12T10:03:50.952Z,100060.52
2018-11-12T10:06:35.893Z,100056.41
2018-11-12T10:09:20.191Z,100053.81
2018-11-12T10:12:02.969Z,100066.11
2018-11-12T10:14:46.060Z,100057.66
2018-11-12T10:17:29.563Z,100058.51
2018-11-12T10:20:10.373Z,100050.84
2018-11-12T10:22:53.753Z,100048.78
2018-11-12T10:25:38.044Z,100039.39
2018-11-12T10:28:22.088Z,100028.70
2018-11-12T10:31:04.995Z,100039.85
2018-11-12T10:33:47.704Z,100034.73
2018-11-12T10:36:31.227Z,100033.97
2018-11-12T10:39:13.844Z,100040.02
2018-11-12T10:41:56.692Z,100044.16
2018-11-12T10:44:40.100Z,100029.47
2018-11-12T10:47:23.893Z,100030.17
2018-11-12T10:50:07.320Z,100028.91
2018-11-12T10:52:50.668Z,100041.13
2018-11-12T10:55:33.844Z,100038.06
2018-11-12T10:58:17.508Z,100019.63
2018-11-12T11:01:09.206Z,100014.50
2018-11-12T11:03:55.218Z,100016.20
2018-11-12T11:06:37.555Z,100015.80
2018-11-12T11:09:20.811Z,100015.41
2018-11-12T11:12:05.124Z,100013.87
2018-11-12T11:14:47.796Z,100010.88
2018-11-12T11:17:30.311Z,100017.14
2018-11-12T11:20:14.951Z,100015.64
2018-11-12T11:22:58.337Z,100016.56
2018-11-12T11:25:43.706Z,100014.33
2018-11-12T11:28:38.970Z,100020.59
2018-11-12T11:31:24.388Z,100017.34
2018-11-12T11:34:06.635Z,100013.72
2018-11-12T11:36:50.686Z,100019.64
2018-11-12T11:39:32.904Z,100031.84
2018-11-12T11:42:16.419Z,100032.45
2018-11-12T11:45:00.250Z,100021.78
2018-11-12T11:47:46.223Z,100036.58
2018-11-12T11:50:28.851Z,100043.30
2018-11-12T11:53:13.118Z,100044.59
2018-11-12T11:55:56.476Z,100041.50
2018-11-12T11:58:41.092Z,100046.05
2018-11-12T12:01:23.867Z,100048.12
2018-11-12T12:04:07.083Z,100044.48
2018-11-12T12:06:51.475Z,100046.41
2018-11-12T12:09:34.120Z,100040.36
2018-11-12T12:12:19.957Z,100033.45
2018-11-12T12:15:04.501Z,100030.90
2018-11-12T12:17:48.643Z,100036.26
2018-11-12T12:20:31.790Z,100029.65
2018-11-12T12:23:14.957Z,100036.86
2018-11-12T12:25:59.997Z,100030.12
2018-11-12T12:28:43.752Z,100024.39
2018-11-12T12:31:26.506Z,100018.55
2018-11-12T12:34:08.931Z,100003.61
2018-11-12T12:36:51.541Z,100004.59
2018-11-12T12:39:33.879Z,100002.45
2018-11-12T12:42:17.475Z,100001.74
2018-11-12T12:45:00.937Z,100010.38
2018-11-12T12:47:43.407Z,100010.78
2018-11-12T12:50:27.073Z,100016.64
2018-11-12T12:53:09.801Z,100012.39
2018-11-12T12:55:53.747Z,100006.36
2018-11-12T12:58:37.252Z,100030.66
2018-11-12T13:01:22.464Z,100024.02
2018-11-12T13:04:06.566Z,100014.44
2018-11-12T13:06:51.364Z,100022.10
2018-11-12T13:09:34.398Z,100034.34
2018-11-12T13:12:17.988Z,100001.97
2018-11-12T13:15:01.517Z,100021.59
2018-11-12T13:17:44.215Z,100019.47
2018-11-12T13:20:26.981Z,100023.52
2018-11-12T13:23:10.188Z,100028.26
2018-11-12T13:25:54.039Z,100030.94
2018-11-12T13:28:37.259Z,100028.98
2018-11-12T13:31:20.767Z,100040.97
2018-11-12T13:34:04.275Z,100043.31
2018-11-12T13:36:48.083Z,100048.86
2018-11-12T13:39:31.981Z,100050.37
2018-11-12T13:42:14.424Z,100061.83
2018-11-12T13:44:57.372Z,100061.72
2018-11-12T13:47:41.567Z,100052.98
2018-11-12T13:50:26.357Z,100065.95
2018-11-12T13:53:09.288Z,100088.59
2018-11-12T13:55:52.348Z,100100.55
2018-11-12T13:58:35.931Z,100088.88
2018-11-12T14:01:19.260Z,100081.55
2018-11-12T14:04:02.436Z,100077.27
2018-11-12T14:06:45.796Z,100100.07
2018-11-12T14:09:29.545Z,100102.30
2018-11-12T14:12:17.799Z,100105.64
2018-11-12T14:15:00.193Z,100117.05
2018-11-12T14:17:44.032Z,100131.59
2018-11-12T14:20:27.304Z,100163.79
2018-11-12T14:23:10.167Z,100153.11
2018-11-12T14:25:54.013Z,100147.00
2018-11-12T14:28:39.018Z,100153.83
2018-11-12T14:31:21.476Z,100157.78
2018-11-12T14:34:06.522Z,100169.23
2018-11-12T14:36:49.958Z,100138.98
2018-11-12T14:39:34.474Z,100154.42
2018-11-12T14:42:17.402Z,100168.50
2018-11-12T14:45:01.367Z,100175.48
2018-11-12T14:47:45.313Z,100166.68
2018-11-12T14:50:29.307Z,100186.98
2018-11-12T14:53:12.716Z,100197.10
2018-11-12T14:55:56.949Z,100195.80
2018-11-12T14:58:41.483Z,100196.03
2018-11-12T15:01:26.430Z,100193.44
2018-11-12T15:04:09.911Z,100192.71
2018-11-12T15:06:55.116Z,100198.46
2018-11-12T15:09:37.452Z,100187.59
2018-11-12T15:12:22.150Z,100185.48
2018-11-12T15:15:08.445Z,100194.14
2018-11-12T15:17:51.860Z,100197.07
2018-11-12T15:20:34.502Z,100205.54
2018-11-12T15:23:18.780Z,100212.49
2018-11-12T15:26:02.615Z,100228.64
2018-11-12T15:28:44.932Z,100229.50
2018-11-12T15:31:29.315Z,100228.20
2018-11-12T15:34:12.208Z,100243.98
2018-11-12T15:36:54.790Z,100237.37
2018-11-12T15:39:37.552Z,100246.14
2018-11-12T15:42:24.236Z,100238.45
2018-11-12T15:45:09.767Z,100259.80
2018-11-12T15:47:52.683Z,100262.05
2018-11-12T15:50:36.580Z,100263.73
2018-11-12T15:53:19.308Z,100272.44
2018-11-12T15:56:02.263Z,100273.48
2018-11-12T15:58:45.428Z,100287.13
2018-11-12T16:01:28.744Z,100287.72
2018-11-12T16:04:13.416Z,100292.97
2018-11-12T16:06:55.739Z,100291.15
2018-11-12T16:09:38.331Z,100287.78
2018-11-12T16:12:21.150Z,100288.62
2018-11-12T16:15:04.643Z,100294.53
2018-11-12T16:17:47.501Z,100301.78
2018-11-12T16:20:31.558Z,100301.78
2018-11-12T16:23:14.932Z,100310.68
2018-11-12T16:25:59.285Z,100298.53
2018-11-12T16:28:41.290Z,100297.22
2018-11-12T16:31:24.251Z,100312.80
2018-11-12T16:34:07.612Z,100327.00
2018-11-12T16:36:52.070Z,100330.78
2018-11-12T16:39:34.816Z,100340.47
2018-11-12T16:42:21.023Z,100348.30
2018-11-12T16:45:05.440Z,100361.44
2018-11-12T16:47:48.343Z,100370.91
2018-11-12T16:50:33.022Z,100380.34
2018-11-12T16:53:17.732Z,100382.38
2018-11-12T16:56:00.251Z,100387.55
2018-11-12T16:58:44.019Z,100395.78
2018-11-12T17:01:29.101Z,100389.72
2018-11-12T17:04:11.815Z,100394.78
2018-11-12T17:06:54.878Z,100403.08
2018-11-12T17:09:39.328Z,100400.06
2018-11-12T17:12:21.805Z,100412.55
2018-11-12T17:15:05.539Z,100406.18
2018-11-12T17:17:49.248Z,100410.01
2018-11-12T17:20:32.984Z,100416.97
2018-11-12T17:23:16.551Z,100428.72
2018-11-12T17:26:00.380Z,100434.74
2018-11-12T17:28:45.470Z,100436.94
2018-11-12T17:31:28.891Z,100443.43
2018-11-12T17:34:14.230Z,100440.09
2018-11-12T17:36:56.496Z,100441.34
2018-11-12T17:39:38.979Z,100450.51
2018-11-12T17:42:23.903Z,100469.92
2018-11-12T17:45:09.426Z,100478.13
2018-11-12T17:47:53.960Z,100481.61
2018-11-12T17:50:37.304Z,100492.80
2018-11-12T17:53:21.079Z,100486.35
2018-11-12T17:56:06.423Z,100481.54
2018-11-12T17:58:50.194Z,100480.73
2018-11-12T18:01:33.320Z,100494.96
2018-11-12T18:04:16.879Z,100506.72
2018-11-12T18:07:00.077Z,100496.35
2018-11-12T18:09:44.720Z,100505.78
2018-11-12T18:12:29.688Z,100504.87
2018-11-12T18:15:15.093Z,100499.27
2018-11-12T18:17:58.286Z,100510.05
2018-11-12T18:20:41.054Z,100506.20
2018-11-12T18:23:25.730Z,100508.38
2018-11-12T18:26:09.770Z,100520.87
2018-11-12T18:28:53.180Z,100536.09
2018-11-12T18:31:35.962Z,100542.56
2018-11-12T18:34:19.924Z,100555.50
2018-11-12T18:37:03.424Z,100565.86
2018-11-12T18:43:45.236Z,100572.98
2018-11-12T18:46:32.553Z,100568.33
2018-11-12T18:49:15.831Z,100570.45
2018-11-12T18:52:01.973Z,100574.48
2018-11-12T18:54:44.536Z,100586.89
2018-11-12T18:57:28.006Z,100601.16
2018-11-12T19:00:14.196Z,100595.89
2018-11-12T19:02:56.885Z,100593.73
2018-11-12T19:05:40.498Z,100588.55
2018-11-12T19:08:24.543Z,100576.87
2018-11-12T19:11:08.266Z,100576.09
2018-11-12T19:13:53.758Z,100592.41
2018-11-12T19:16:40.693Z,100606.69
2018-11-12T19:19:24.471Z,100606.31
2018-11-12T19:22:08.032Z,100612.38
2018-11-12T19:24:50.731Z,100613.23
2018-11-12T19:27:34.883Z,100609.39
2018-11-12T19:30:20.100Z,100623.16
2018-11-12T19:33:02.900Z,100633.03
2018-11-12T19:35:47.786Z,100633.02
2018-11-12T19:38:32.657Z,100626.21
2018-11-12T19:41:16.911Z,100629.27
2018-11-12T19:43:59.091Z,100637.02
2018-11-12T19:46:50.486Z,100640.46
2018-11-12T19:49:38.013Z,100643.44
2018-11-12T19:52:21.964Z,100648.36
2018-11-12T19:55:06.355Z,100655.70
2018-11-12T19:57:49.461Z,100647.94
2018-11-12T20:00:34.908Z,100651.40
2018-11-12T20:03:17.717Z,100652.67
2018-11-12T20:06:02.931Z,100648.78
2018-11-12T20:08:47.508Z,100656.56
2018-11-12T20:11:41.395Z,100658.30
2018-11-12T20:14:32.746Z,100652.30
2018-11-12T20:17:16.421Z,100651.45
2018-11-12T20:19:59.016Z,100651.38
2018-11-12T20:22:42.110Z,100647.13
2018-11-12T20:25:26.223Z,100646.19
2018-11-12T20:28:09.089Z,100645.30
2018-11-12T20:30:52.893Z,100653.09
2018-11-12T20:33:37.414Z,100655.61
2018-11-12T20:36:31.570Z,100661.32
2018-11-12T20:39:22.270Z,100656.20
2018-11-12T20:42:07.307Z,100662.69
2018-11-12T20:44:51.934Z,100652.32
2018-11-12T20:47:37.095Z,100654.91
2018-11-12T20:50:21.168Z,100669.95
2018-11-12T20:53:03.958Z,100669.85
2018-11-12T20:55:46.445Z,100663.04
2018-11-12T20:58:29.004Z,100666.55
2018-11-12T21:01:12.062Z,100675.14
2018-11-12T21:03:55.602Z,100677.71
2018-11-12T21:06:38.126Z,100678.59
2018-11-12T21:09:25.010Z,100687.64
2018-11-12T21:12:08.268Z,100677.72
2018-11-12T21:14:50.799Z,100674.33
2018-11-12T21:17:35.012Z,100690.67
2018-11-12T21:20:19.500Z,100672.16
2018-11-12T21:23:03.582Z,100676.86
2018-11-12T21:25:47.387Z,100672.59
2018-11-12T21:28:30.647Z,100665.70
2018-11-12T21:31:14.477Z,100661.81
2018-11-12T21:33:58.091Z,100655.38
2018-11-12T21:36:43.486Z,100666.58
2018-11-12T21:39:25.954Z,100667.80
2018-11-12T21:42:10.353Z,100680.33
2018-11-12T21:44:53.675Z,100674.70
2018-11-12T21:47:37.179Z,100672.55
2018-11-12T21:50:22.588Z,100661.83
2018-11-12T21:53:07.200Z,100664.85
2018-11-12T21:55:50.760Z,100668.31
2018-11-12T21:58:33.549Z,100673.83
2018-11-12T22:01:17.853Z,100667.45
2018-11-12T22:04:00.683Z,100671.74
2018-11-12T22:06:44.306Z,100665.27
2018-11-12T22:09:27.929Z,100665.30
2018-11-12T22:12:11.082Z,100667.46
2018-11-12T22:14:54.259Z,100670.09
2018-11-12T22:17:37.203Z,100667.87
2018-11-12T22:20:21.108Z,100676.09
2018-11-12T22:23:04.895Z,100678.64
2018-11-12T22:25:48.742Z,100695.05
2018-11-12T22:28:31.659Z,100699.80
2018-11-12T22:31:15.544Z,100695.91
2018-11-12T22:33:59.284Z,100693.77
2018-11-12T22:36:43.162Z,100688.22
2018-11-12T22:39:27.151Z,100704.56
2018-11-12T22:42:10.133Z,100708.02
2018-11-12T22:44:53.372Z,100718.36
2018-11-12T22:47:36.413Z,100724.41
2018-11-12T22:50:19.002Z,100736.92
2018-11-12T22:53:06.535Z,100727.47
2018-11-12T22:55:49.778Z,100728.72
2018-11-12T22:58:32.939Z,100723.55
2018-11-12T23:01:16.895Z,100728.71
2018-11-12T23:03:59.952Z,100730.88
2018-11-12T23:06:44.069Z,100733.89
2018-11-12T23:09:26.711Z,100730.44
2018-11-12T23:12:09.307Z,100729.16
2018-11-12T23:14:53.288Z,100728.30
2018-11-12T23:17:36.289Z,100719.66
2018-11-12T23:20:21.003Z,100723.55
2018-11-12T23:23:03.256Z,100726.13
2018-11-12T23:25:47.201Z,100731.73
2018-11-12T23:28:35.000Z,100725.69
2018-11-12T23:31:18.466Z,100727.86
2018-11-12T23:34:07.428Z,100727.44
2018-11-12T23:36:53.446Z,100720.09
2018-11-12T23:43:11.794Z,100727.42
2018-11-12T23:45:55.840Z,100727.42
2018-11-12T23:48:38.781Z,100723.95
2018-11-12T23:51:21.976Z,100715.83
2018-11-12T23:54:05.315Z,100725.75
2018-11-12T23:56:48.338Z,100749.88
2018-11-12T23:59:31.607Z,100749.05
